sensor_id;sensor_type;location;lat;lon;timestamp;pressure;altitude;pressure_sealevel;temperature;humidity
6020;BME280;3038;51.122;6.840;2023-08-31T02:34:22;100555.59;;;11.65;100.00
6020;BME280;3038;51.122;6.840;2023-08-31T02:36:48;100556.59;;;11.64;99.71
6020;BME280;3038;51.122;6.840;2023-08-31T02:39:13;100549.47;;;11.56;99.76
6020;BME280;3038;51.122;6.840;2023-08-31T02:44:14;100553.97;;;11.56;99.90
6020;BME280;3038;51.122;6.840;2023-08-31T02:46:39;100551.66;;;11.53;99.62
6020;BME280;3038;51.122;6.840;2023-08-31T02:49:04;100548.00;;;11.46;99.69
6020;BME280;3038;51.122;6.840;2023-08-31T02:51:31;100550.00;;;11.44;99.92
6020;BME280;3038;51.122;6.840;2023-08-31T02:53:56;100552.66;;;11.44;100.00
6020;BME280;3038;51.122;6.840;2023-08-31T02:56:21;100544.03;;;11.42;100.00
6020;BME280;3038;51.122;6.840;2023-08-31T02:58:47;100551.34;;;11.40;100.00
6020;BME280;3038;51.122;6.840;2023-08-31T03:01:13;100553.34;;;11.38;100.00
6020;BME280;3038;51.122;6.840;2023-08-31T03:03:39;100550.69;;;11.38;100.00
6020;BME280;3038;51.122;6.840;2023-08-31T03:06:08;100548.34;;;11.35;100.00
6020;BME280;3038;51.122;6.840;2023-08-31T03:08:34;100550.19;;;11.34;100.00
6020;BME280;3038;51.122;6.840;2023-08-31T03:11:01;100556.69;;;11.31;100.00
6020;BME280;3038;51.122;6.840;2023-08-31T03:13:27;100545.03;;;11.32;100.00
6020;BME280;3038;51.122;6.840;2023-08-31T03:15:52;100554.03;;;11.31;100.00
6020;BME280;3038;51.122;6.840;2023-08-31T03:18:17;100556.00;;;11.29;100.00
6020;BME280;3038;51.122;6.840;2023-08-31T03:20:43;100562.66;;;11.33;100.00
6020;BME280;3038;51.122;6.840;2023-08-31T03:23:08;100566.47;;;11.39;100.00
6020;BME280;3038;51.122;6.840;2023-08-31T03:25:35;100559.47;;;11.46;100.00
6020;BME280;3038;51.122;6.840;2023-08-31T03:28:01;100563.94;;;11.54;100.00
6020;BME280;3038;51.122;6.840;2023-08-31T03:30:26;100567.72;;;11.59;100.00
6020;BME280;3038;51.122;6.840;2023-08-31T03:32:51;100560.25;;;11.55;100.00
6020;BME280;3038;51.122;6.840;2023-08-31T03:35:17;100564.75;;;11.54;100.00
6020;BME280;3038;51.122;6.840;2023-08-31T03:37:42;100559.63;;;11.53;100.00
6020;BME280;3038;51.122;6.840;2023-08-31T03:40:08;100557.47;;;11.56;100.00
6020;BME280;3038;51.122;6.840;2023-08-31T03:42:34;100561.94;;;11.56;99.81
6020;BME280;3038;51.122;6.840;2023-08-31T03:45:00;100559.28;;;11.56;100.00
6020;BME280;3038;51.122;6.840;2023-08-31T03:47:26;100557.59;;;11.55;99.91
6020;BME280;3038;51.122;6.840;2023-08-31T03:49:51;100567.22;;;11.64;99.87
6020;BME280;3038;51.122;6.840;2023-08-31T03:52:17;100557.56;;;11.71;99.72
6020;BME280;3038;51.122;6.840;2023-08-31T03:54:42;100556.56;;;11.72;99.85
6020;BME280;3038;51.122;6.840;2023-08-31T03:57:07;100560.56;;;11.76;99.88
6020;BME280;3038;51.122;6.840;2023-08-31T03:59:33;100551.91;;;11.74;99.60
6020;BME280;3038;51.122;6.840;2023-08-31T04:01:58;100562.03;;;11.79;99.99
6020;BME280;3038;51.122;6.840;2023-08-31T04:04:24;100555.53;;;11.81;99.56
6020;BME280;3038;51.122;6.840;2023-08-31T04:06:50;100567.53;;;11.86;99.45
6020;BME280;3038;51.122;6.840;2023-08-31T04:09:15;100565.88;;;11.85;99.77
6020;BME280;3038;51.122;6.840;2023-08-31T04:11:40;100555.53;;;11.81;99.74
6020;BME280;3038;51.122;6.840;2023-08-31T04:14:06;100571.50;;;11.81;99.58
6020;BME280;3038;51.122;6.840;2023-08-31T04:16:32;100563.22;;;11.76;99.26
6020;BME280;3038;51.122;6.840;2023-08-31T04:18:57;100581.16;;;11.74;99.60
6020;BME280;3038;51.122;6.840;2023-08-31T04:21:22;100582.84;;;11.75;100.00
6020;BME280;3038;51.122;6.840;2023-08-31T04:23:48;100572.66;;;11.79;100.00
6020;BME280;3038;51.122;6.840;2023-08-31T04:26:13;100572.19;;;11.83;99.58
6020;BME280;3038;51.122;6.840;2023-08-31T04:28:39;100570.00;;;11.79;100.00
6020;BME280;3038;51.122;6.840;2023-08-31T04:31:06;100578.19;;;11.69;100.00
6020;BME280;3038;51.122;6.840;2023-08-31T04:33:36;100582.03;;;11.67;100.00
6020;BME280;3038;51.122;6.840;2023-08-31T04:36:03;100585.19;;;11.62;100.00
6020;BME280;3038;51.122;6.840;2023-08-31T04:38:30;100592.66;;;11.58;100.00
6020;BME280;3038;51.122;6.840;2023-08-31T04:40:58;100592.66;;;11.58;100.00
6020;BME280;3038;51.122;6.840;2023-08-31T04:43:23;100596.66;;;11.54;100.00
6020;BME280;3038;51.122;6.840;2023-08-31T04:45:51;100601.16;;;11.54;100.00
6020;BME280;3038;51.122;6.840;2023-08-31T04:48:16;100596.66;;;11.54;100.00
6020;BME280;3038;51.122;6.840;2023-08-31T04:50:42;100604.16;;;11.51;100.00
6020;BME280;3038;51.122;6.840;2023-08-31T04:53:07;100604.81;;;11.53;100.00
6020;BME280;3038;51.122;6.840;2023-08-31T04:55:33;100603.16;;;11.52;100.00
6020;BME280;3038;51.122;6.840;2023-08-31T04:57:58;100607.66;;;11.51;100.00
6020;BME280;3038;51.122;6.840;2023-08-31T05:00:23;100608.81;;;11.49;100.00
6020;BME280;3038;51.122;6.840;2023-08-31T05:02:49;100615.97;;;11.48;100.00
6020;BME280;3038;51.122;6.840;2023-08-31T05:05:14;100605.16;;;11.50;100.00
6020;BME280;3038;51.122;6.840;2023-08-31T05:07:39;100613.81;;;11.52;100.00
6020;BME280;3038;51.122;6.840;2023-08-31T05:10:06;100611.78;;;11.54;100.00
6020;BME280;3038;51.122;6.840;2023-08-31T05:12:31;100623.09;;;11.56;100.00
6020;BME280;3038;51.122;6.840;2023-08-31T05:14:57;100615.59;;;11.59;100.00
6020;BME280;3038;51.122;6.840;2023-08-31T05:17:22;100619.94;;;11.61;100.00
6020;BME280;3038;51.122;6.840;2023-08-31T05:19:48;100623.44;;;11.61;100.00
6020;BME280;3038;51.122;6.840;2023-08-31T05:22:14;100633.25;;;11.61;100.00
6020;BME280;3038;51.122;6.840;2023-08-31T05:24:39;100632.06;;;11.63;100.00
6020;BME280;3038;51.122;6.840;2023-08-31T05:27:04;100640.69;;;11.65;100.00
6020;BME280;3038;51.122;6.840;2023-08-31T05:29:30;100649.00;;;11.70;100.00
6020;BME280;3038;51.122;6.840;2023-08-31T05:31:55;100649.00;;;11.70;100.00
6020;BME280;3038;51.122;6.840;2023-08-31T05:34:21;100655.47;;;11.68;100.00
6020;BME280;3038;51.122;6.840;2023-08-31T05:36:48;100658.31;;;11.66;100.00
6020;BME280;3038;51.122;6.840;2023-08-31T05:39:13;100653.66;;;11.68;100.00
6020;BME280;3038;51.122;6.840;2023-08-31T05:41:41;100659.97;;;11.67;100.00
6020;BME280;3038;51.122;6.840;2023-08-31T05:44:08;100666.94;;;11.68;100.00
6020;BME280;3038;51.122;6.840;2023-08-31T05:46:33;100660.28;;;11.72;100.00
6020;BME280;3038;51.122;6.840;2023-08-31T05:48:59;100653.66;;;11.76;100.00
6020;BME280;3038;51.122;6.840;2023-08-31T05:51:24;100661.13;;;11.81;100.00
6020;BME280;3038;51.122;6.840;2023-08-31T05:53:49;100662.47;;;11.85;100.00
6020;BME280;3038;51.122;6.840;2023-08-31T05:56:15;100669.97;;;11.90;100.00
6020;BME280;3038;51.122;6.840;2023-08-31T05:58:40;100671.75;;;11.97;100.00
6020;BME280;3038;51.122;6.840;2023-08-31T06:01:06;100669.59;;;12.01;100.00
6020;BME280;3038;51.122;6.840;2023-08-31T06:03:32;100673.56;;;12.05;100.00
6020;BME280;3038;51.122;6.840;2023-08-31T06:05:58;100674.53;;;12.12;100.00
6020;BME280;3038;51.122;6.840;2023-08-31T06:08:24;100673.19;;;12.16;100.00
6020;BME280;3038;51.122;6.840;2023-08-31T06:10:50;100681.50;;;12.21;100.00
6020;BME280;3038;51.122;6.840;2023-08-31T06:13:16;100677.31;;;12.27;100.00
6020;BME280;3038;51.122;6.840;2023-08-31T06:15:41;100674.13;;;-144.63;100.00
6020;BME280;3038;51.122;6.840;2023-08-31T06:18:07;100679.63;;;12.38;100.00
6020;BME280;3038;51.122;6.840;2023-08-31T06:20:32;109148.44;;;12.45;100.00
6020;BME280;3038;51.122;6.840;2023-08-31T06:22:59;100682.38;;;12.53;99.93
6020;BME280;3038;51.122;6.840;2023-08-31T06:25:25;100678.00;;;12.60;99.25
6020;BME280;3038;51.122;6.840;2023-08-31T06:30:38;100691.59;;;12.73;99.27
6020;BME280;3038;51.122;6.840;2023-08-31T06:33:04;100689.25;;;12.78;98.80
6020;BME280;3038;51.122;6.840;2023-08-31T06:35:30;100700.84;;;12.85;99.45
6020;BME280;3038;51.122;6.840;2023-08-31T06:37:56;100693.81;;;12.93;98.84
6020;BME280;3038;51.122;6.840;2023-08-31T06:40:23;100690.63;;;12.97;98.23
6020;BME280;3038;51.122;6.840;2023-08-31T06:42:49;100691.13;;;13.01;98.61
6020;BME280;3038;51.122;6.840;2023-08-31T06:45:14;100693.91;;;13.07;97.92
6020;BME280;3038;51.122;6.840;2023-08-31T06:47:40;100685.66;;;13.17;97.74
6020;BME280;3038;51.122;6.840;2023-08-31T06:50:05;100686.97;;;13.21;97.58
6020;BME280;3038;51.122;6.840;2023-08-31T06:52:31;100701.13;;;13.30;97.15
6020;BME280;3038;51.122;6.840;2023-08-31T06:54:57;100699.19;;;13.38;97.34
6020;BME280;3038;51.122;6.840;2023-08-31T06:57:26;100705.84;;;13.43;96.89
6020;BME280;3038;51.122;6.840;2023-08-31T06:59:52;100698.78;;;13.50;96.90
6020;BME280;3038;51.122;6.840;2023-08-31T07:02:17;100701.03;;;13.61;96.23
6020;BME280;3038;51.122;6.840;2023-08-31T07:04:44;100701.88;;;13.76;96.38
6020;BME280;3038;51.122;6.840;2023-08-31T07:07:10;100701.75;;;13.93;97.00
6020;BME280;3038;51.122;6.840;2023-08-31T07:09:36;100696.41;;;14.07;95.43
6020;BME280;3038;51.122;6.840;2023-08-31T07:12:01;100697.88;;;14.10;94.25
6020;BME280;3038;51.122;6.840;2023-08-31T07:14:27;100702.66;;;14.14;93.77
6020;BME280;3038;51.122;6.840;2023-08-31T07:16:52;100708.75;;;14.23;92.90
6020;BME280;3038;51.122;6.840;2023-08-31T07:19:18;100707.19;;;14.29;92.46
6020;BME280;3038;51.122;6.840;2023-08-31T07:21:43;100708.56;;;14.39;93.53
6020;BME280;3038;51.122;6.840;2023-08-31T07:24:09;100711.50;;;14.45;90.77
6020;BME280;3038;51.122;6.840;2023-08-31T07:26:34;100714.47;;;14.50;90.80
6020;BME280;3038;51.122;6.840;2023-08-31T07:29:01;100712.06;;;14.55;90.42
6020;BME280;3038;51.122;6.840;2023-08-31T07:31:29;100720.94;;;14.70;91.14
6020;BME280;3038;51.122;6.840;2023-08-31T07:33:55;100711.59;;;14.81;90.41
6020;BME280;3038;51.122;6.840;2023-08-31T07:36:20;100725.69;;;14.89;89.67
6020;BME280;3038;51.122;6.840;2023-08-31T07:38:45;100720.69;;;14.86;88.03
6020;BME280;3038;51.122;6.840;2023-08-31T07:41:11;100726.13;;;14.93;88.77
6020;BME280;3038;51.122;6.840;2023-08-31T07:43:36;100731.16;;;15.03;89.28
6020;BME280;3038;51.122;6.840;2023-08-31T07:46:01;100728.75;;;15.08;86.98
6020;BME280;3038;51.122;6.840;2023-08-31T07:48:27;100736.84;;;15.14;88.14
6020;BME280;3038;51.122;6.840;2023-08-31T07:50:52;100741.75;;;15.32;88.28
6020;BME280;3038;51.122;6.840;2023-08-31T07:53:17;100745.97;;;15.41;87.59
6020;BME280;3038;51.122;6.840;2023-08-31T07:55:53;100744.97;;;15.42;85.46
6020;BME280;3038;51.122;6.840;2023-08-31T07:58:20;100743.53;;;15.47;86.42
6020;BME280;3038;51.122;6.840;2023-08-31T08:00:48;100745.16;;;15.62;86.85
6020;BME280;3038;51.122;6.840;2023-08-31T08:03:14;100738.72;;;15.78;85.65
6020;BME280;3038;51.122;6.840;2023-08-31T08:05:40;100741.69;;;15.90;85.51
6020;BME280;3038;51.122;6.840;2023-08-31T08:08:06;100744.03;;;16.00;84.54
6020;BME280;3038;51.122;6.840;2023-08-31T08:10:32;100745.16;;;16.12;83.71
6020;BME280;3038;51.122;6.840;2023-08-31T08:12:57;100750.38;;;16.20;83.63
6020;BME280;3038;51.122;6.840;2023-08-31T08:15:22;100749.38;;;16.28;82.38
6020;BME280;3038;51.122;6.840;2023-08-31T08:17:48;100752.19;;;16.48;80.83
6020;BME280;3038;51.122;6.840;2023-08-31T08:20:13;100751.41;;;16.54;81.01
6020;BME280;3038;51.122;6.840;2023-08-31T08:22:39;100752.66;;;16.58;79.97
6020;BME280;3038;51.122;6.840;2023-08-31T08:25:05;100756.25;;;16.72;80.19
6020;BME280;3038;51.122;6.840;2023-08-31T08:27:31;100756.31;;;16.78;79.89
6020;BME280;3038;51.122;6.840;2023-08-31T08:30:01;100759.00;;;16.78;79.77
6020;BME280;3038;51.122;6.840;2023-08-31T08:32:26;100760.44;;;16.87;79.31
6020;BME280;3038;51.122;6.840;2023-08-31T08:34:51;100753.28;;;16.94;78.13
6020;BME280;3038;51.122;6.840;2023-08-31T08:37:17;100752.44;;;17.01;77.62
6020;BME280;3038;51.122;6.840;2023-08-31T08:39:43;100757.44;;;17.10;77.69
6020;BME280;3038;51.122;6.840;2023-08-31T08:42:10;100762.84;;;17.17;77.38
6020;BME280;3038;51.122;6.840;2023-08-31T08:44:36;100765.69;;;17.09;77.43
6020;BME280;3038;51.122;6.840;2023-08-31T08:47:02;100761.59;;;17.13;77.22
6020;BME280;3038;51.122;6.840;2023-08-31T08:49:31;100756.88;;;17.28;76.17
6020;BME280;3038;51.122;6.840;2023-08-31T08:51:58;100764.72;;;17.23;75.70
6020;BME280;3038;51.122;6.840;2023-08-31T08:54:24;100772.31;;;17.13;75.82
6020;BME280;3038;51.122;6.840;2023-08-31T08:56:50;100765.09;;;17.13;76.42
6020;BME280;3038;51.122;6.840;2023-08-31T08:59:16;100760.38;;;17.22;77.03
6020;BME280;3038;51.122;6.840;2023-08-31T09:01:41;100763.28;;;17.27;76.01
6020;BME280;3038;51.122;6.840;2023-08-31T09:04:09;100765.78;;;17.48;76.08
6020;BME280;3038;51.122;6.840;2023-08-31T09:06:35;100766.44;;;17.51;74.23
6020;BME280;3038;51.122;6.840;2023-08-31T09:09:01;100770.75;;;17.58;73.36
6020;BME280;3038;51.122;6.840;2023-08-31T09:11:26;100763.59;;;17.85;72.51
6020;BME280;3038;51.122;6.840;2023-08-31T09:13:52;100770.22;;;18.09;71.94
6020;BME280;3038;51.122;6.840;2023-08-31T09:16:28;100770.38;;;18.21;68.96
6020;BME280;3038;51.122;6.840;2023-08-31T09:18:55;100771.63;;;18.38;69.24
6020;BME280;3038;51.122;6.840;2023-08-31T09:21:21;100767.41;;;18.56;68.00
6020;BME280;3038;51.122;6.840;2023-08-31T09:23:56;100767.41;;;18.62;68.88
6020;BME280;3038;51.122;6.840;2023-08-31T09:26:23;100764.06;;;18.80;67.92
6020;BME280;3038;51.122;6.840;2023-08-31T09:28:48;100768.97;;;18.96;67.99
6020;BME280;3038;51.122;6.840;2023-08-31T09:31:14;100773.91;;;18.99;67.69
6020;BME280;3038;51.122;6.840;2023-08-31T09:33:51;100772.31;;;18.92;64.97
6020;BME280;3038;51.122;6.840;2023-08-31T09:36:17;100776.03;;;18.91;66.64
6020;BME280;3038;51.122;6.840;2023-08-31T09:38:43;100772.72;;;18.89;66.03
6020;BME280;3038;51.122;6.840;2023-08-31T09:41:09;100769.16;;;19.02;66.76
6020;BME280;3038;51.122;6.840;2023-08-31T09:43:35;100772.91;;;19.00;67.40
6020;BME280;3038;51.122;6.840;2023-08-31T09:46:03;100773.00;;;19.19;66.38
6020;BME280;3038;51.122;6.840;2023-08-31T09:48:28;100767.50;;;19.39;66.31
6020;BME280;3038;51.122;6.840;2023-08-31T09:50:55;100769.47;;;19.57;64.24
6020;BME280;3038;51.122;6.840;2023-08-31T09:53:23;100764.88;;;19.57;61.46
6020;BME280;3038;51.122;6.840;2023-08-31T09:55:51;100763.31;;;19.49;61.71
6020;BME280;3038;51.122;6.840;2023-08-31T09:58:20;100772.97;;;19.64;62.46
6020;BME280;3038;51.122;6.840;2023-08-31T10:00:46;100767.59;;;19.89;62.84
6020;BME280;3038;51.122;6.840;2023-08-31T10:03:14;100770.88;;;20.16;60.77
6020;BME280;3038;51.122;6.840;2023-08-31T10:05:45;100776.66;;;19.94;61.23
6020;BME280;3038;51.122;6.840;2023-08-31T10:08:11;100763.28;;;20.06;62.61
6020;BME280;3038;51.122;6.840;2023-08-31T10:10:37;100773.06;;;20.25;61.43
6020;BME280;3038;51.122;6.840;2023-08-31T10:13:07;100775.63;;;20.39;59.89
6020;BME280;3038;51.122;6.840;2023-08-31T10:15:34;100777.91;;;20.42;58.94
6020;BME280;3038;51.122;6.840;2023-08-31T10:18:01;100779.59;;;19.93;59.51
6020;BME280;3038;51.122;6.840;2023-08-31T10:20:28;100784.91;;;19.99;59.59
6020;BME280;3038;51.122;6.840;2023-08-31T10:22:57;100777.78;;;20.30;60.24
6020;BME280;3038;51.122;6.840;2023-08-31T10:25:23;100768.88;;;20.29;60.26
6020;BME280;3038;51.122;6.840;2023-08-31T10:27:49;100778.22;;;20.09;61.36
6020;BME280;3038;51.122;6.840;2023-08-31T10:30:27;100774.72;;;20.51;60.50
6020;BME280;3038;51.122;6.840;2023-08-31T10:35:50;100775.31;;;20.90;58.01
6020;BME280;3038;51.122;6.840;2023-08-31T10:38:36;100781.25;;;20.37;59.30
6020;BME280;3038;51.122;6.840;2023-08-31T10:46:17;100779.66;;;20.29;59.27
6020;BME280;3038;51.122;6.840;2023-08-31T10:48:56;100774.06;;;22.18;52.50
6020;BME280;3038;51.122;6.840;2023-08-31T10:51:23;63325.50;;;-144.63;100.00
6020;BME280;3038;51.122;6.840;2023-08-31T10:56:18;63325.50;;;-144.63;100.00
6020;BME280;3038;51.122;6.840;2023-08-31T10:59:00;63325.50;;;-144.63;100.00
6020;BME280;3038;51.122;6.840;2023-08-31T11:01:53;63325.50;;;-144.63;100.00
6020;BME280;3038;51.122;6.840;2023-08-31T11:04:23;63325.50;;;-144.63;100.00
6020;BME280;3038;51.122;6.840;2023-08-31T11:06:50;63325.50;;;-144.63;100.00
6020;BME280;3038;51.122;6.840;2023-08-31T11:09:33;63325.50;;;64.12;100.00
6020;BME280;3038;51.122;6.840;2023-08-31T11:12:02;63325.50;;;22.33;100.00
6020;BME280;3038;51.122;6.840;2023-08-31T11:14:27;63325.50;;;-144.63;100.00
6020;BME280;3038;51.122;6.840;2023-08-31T11:16:52;63325.50;;;-144.63;100.00
6020;BME280;3038;51.122;6.840;2023-08-31T11:19:18;63325.50;;;-144.63;100.00
6020;BME280;3038;51.122;6.840;2023-08-31T11:21:43;63325.50;;;-144.63;100.00
6020;BME280;3038;51.122;6.840;2023-08-31T11:24:09;63325.50;;;-144.63;100.00
6020;BME280;3038;51.122;6.840;2023-08-31T11:26:34;63325.50;;;-144.63;100.00
6020;BME280;3038;51.122;6.840;2023-08-31T11:29:00;63325.50;;;-144.63;100.00
6020;BME280;3038;51.122;6.840;2023-08-31T11:31:26;63325.50;;;-144.63;100.00
6020;BME280;3038;51.122;6.840;2023-08-31T11:33:54;63325.50;;;-144.63;100.00
6020;BME280;3038;51.122;6.840;2023-08-31T11:36:20;63325.50;;;-144.63;100.00
6020;BME280;3038;51.122;6.840;2023-08-31T11:38:48;63325.50;;;-144.63;100.00
6020;BME280;3038;51.122;6.840;2023-08-31T11:41:13;63325.50;;;-144.63;100.00
6020;BME280;3038;51.122;6.840;2023-08-31T11:43:39;63325.50;;;-144.63;100.00
6020;BME280;3038;51.122;6.840;2023-08-31T11:46:04;63325.50;;;-144.63;100.00
6020;BME280;3038;51.122;6.840;2023-08-31T11:48:31;63325.50;;;-144.63;100.00
6020;BME280;3038;51.122;6.840;2023-08-31T11:50:57;63325.50;;;-144.63;100.00
6020;BME280;3038;51.122;6.840;2023-08-31T11:53:23;63325.50;;;105.93;100.00
6020;BME280;3038;51.122;6.840;2023-08-31T11:55:52;63325.50;;;-144.63;100.00
6020;BME280;3038;51.122;6.840;2023-08-31T11:58:19;63325.50;;;23.64;100.00
6020;BME280;3038;51.122;6.840;2023-08-31T12:00:45;63325.50;;;-144.63;100.00
6020;BME280;3038;51.122;6.840;2023-08-31T12:03:12;63325.50;;;-144.63;100.00
6020;BME280;3038;51.122;6.840;2023-08-31T12:05:47;63325.50;;;32.78;100.00
6020;BME280;3038;51.122;6.840;2023-08-31T12:08:14;63325.50;;;-144.63;100.00
6020;BME280;3038;51.122;6.840;2023-08-31T12:10:41;63325.50;;;-144.63;100.00
6020;BME280;3038;51.122;6.840;2023-08-31T12:13:11;63325.50;;;-144.63;100.00
6020;BME280;3038;51.122;6.840;2023-08-31T12:15:38;63325.50;;;64.12;100.00
6020;BME280;3038;51.122;6.840;2023-08-31T12:18:08;63325.50;;;-144.63;100.00
6020;BME280;3038;51.122;6.840;2023-08-31T12:20:33;63325.50;;;-144.63;100.00
6020;BME280;3038;51.122;6.840;2023-08-31T12:23:07;63325.50;;;-144.63;100.00
6020;BME280;3038;51.122;6.840;2023-08-31T12:25:33;63325.50;;;-144.63;100.00
6020;BME280;3038;51.122;6.840;2023-08-31T12:27:58;63325.50;;;-144.63;100.00
6020;BME280;3038;51.122;6.840;2023-08-31T12:30:24;63325.50;;;64.12;100.00
6020;BME280;3038;51.122;6.840;2023-08-31T12:32:51;63325.50;;;32.78;100.00
6020;BME280;3038;51.122;6.840;2023-08-31T12:35:17;63325.50;;;-144.63;100.00
6020;BME280;3038;51.122;6.840;2023-08-31T12:37:43;63325.50;;;-144.63;100.00
6020;BME280;3038;51.122;6.840;2023-08-31T12:40:09;63325.50;;;105.93;100.00
6020;BME280;3038;51.122;6.840;2023-08-31T12:42:35;63325.50;;;-144.63;100.00
6020;BME280;3038;51.122;6.840;2023-08-31T12:45:01;63325.50;;;43.22;100.00
6020;BME280;3038;51.122;6.840;2023-08-31T12:47:26;63325.50;;;-144.63;100.00
6020;BME280;3038;51.122;6.840;2023-08-31T12:49:52;63325.50;;;-144.63;100.00
6020;BME280;3038;51.122;6.840;2023-08-31T12:52:17;63325.50;;;27.62;100.00
6020;BME280;3038;51.122;6.840;2023-08-31T12:54:43;63325.50;;;-144.63;100.00
6020;BME280;3038;51.122;6.840;2023-08-31T12:57:08;63325.50;;;-144.63;100.00
6020;BME280;3038;51.122;6.840;2023-08-31T12:59:33;63325.50;;;43.22;100.00
6020;BME280;3038;51.122;6.840;2023-08-31T13:01:59;63325.50;;;29.02;100.00
6020;BME280;3038;51.122;6.840;2023-08-31T13:04:25;63325.50;;;-144.63;100.00
6020;BME280;3038;51.122;6.840;2023-08-31T13:06:50;63325.50;;;-144.63;100.00
6020;BME280;3038;51.122;6.840;2023-08-31T13:09:15;63325.50;;;-144.63;100.00
6020;BME280;3038;51.122;6.840;2023-08-31T13:11:41;63325.50;;;-144.63;100.00
6020;BME280;3038;51.122;6.840;2023-08-31T13:14:06;63325.50;;;-144.63;100.00
6020;BME280;3038;51.122;6.840;2023-08-31T13:16:32;63325.50;;;-144.63;100.00
6020;BME280;3038;51.122;6.840;2023-08-31T13:18:58;63325.50;;;-144.63;100.00
6020;BME280;3038;51.122;6.840;2023-08-31T13:21:23;63325.50;;;64.12;100.00
6020;BME280;3038;51.122;6.840;2023-08-31T13:23:49;63325.50;;;-144.63;100.00
6020;BME280;3038;51.122;6.840;2023-08-31T13:26:14;63325.50;;;27.81;100.00
6020;BME280;3038;51.122;6.840;2023-08-31T13:28:39;63325.50;;;-144.63;100.00
6020;BME280;3038;51.122;6.840;2023-08-31T13:31:06;63325.50;;;-144.63;100.00
6020;BME280;3038;51.122;6.840;2023-08-31T13:33:31;63325.50;;;-144.63;100.00
6020;BME280;3038;51.122;6.840;2023-08-31T13:35:57;63325.50;;;-144.63;100.00
6020;BME280;3038;51.122;6.840;2023-08-31T13:38:24;63325.50;;;-144.63;100.00
6020;BME280;3038;51.122;6.840;2023-08-31T13:40:54;63325.50;;;-144.63;100.00
6020;BME280;3038;51.122;6.840;2023-08-31T13:43:20;63325.50;;;-144.63;100.00
6020;BME280;3038;51.122;6.840;2023-08-31T13:45:47;63325.50;;;-144.63;100.00
6020;BME280;3038;51.122;6.840;2023-08-31T13:48:16;63325.50;;;-144.63;100.00
6020;BME280;3038;51.122;6.840;2023-08-31T13:50:41;63325.50;;;105.93;100.00
6020;BME280;3038;51.122;6.840;2023-08-31T13:53:06;63325.50;;;-144.63;100.00
6020;BME280;3038;51.122;6.840;2023-08-31T13:55:32;63325.50;;;-144.63;100.00
6020;BME280;3038;51.122;6.840;2023-08-31T13:58:04;63325.50;;;-144.63;100.00
6020;BME280;3038;51.122;6.840;2023-08-31T14:00:31;63325.50;;;-144.63;100.00
6020;BME280;3038;51.122;6.840;2023-08-31T14:02:56;63325.50;;;27.81;100.00
6020;BME280;3038;51.122;6.840;2023-08-31T14:05:23;63325.50;;;-144.63;100.00
6020;BME280;3038;51.122;6.840;2023-08-31T14:07:49;63325.50;;;-144.63;100.00
6020;BME280;3038;51.122;6.840;2023-08-31T14:10:15;63325.50;;;32.78;100.00
6020;BME280;3038;51.122;6.840;2023-08-31T14:12:40;63325.50;;;105.93;100.00
6020;BME280;3038;51.122;6.840;2023-08-31T14:15:06;63325.50;;;-144.63;100.00
6020;BME280;3038;51.122;6.840;2023-08-31T14:17:32;63325.50;;;-144.63;100.00
6020;BME280;3038;51.122;6.840;2023-08-31T14:20:00;63325.50;;;189.61;100.00
6020;BME280;3038;51.122;6.840;2023-08-31T14:22:29;63325.50;;;-144.63;100.00
6020;BME280;3038;51.122;6.840;2023-08-31T14:24:54;63325.50;;;-144.63;100.00
6020;BME280;3038;51.122;6.840;2023-08-31T14:27:19;63325.50;;;189.61;100.00
6020;BME280;3038;51.122;6.840;2023-08-31T14:29:45;63325.50;;;189.61;100.00
6020;BME280;3038;51.122;6.840;2023-08-31T14:32:10;63325.50;;;43.22;100.00
6020;BME280;3038;51.122;6.840;2023-08-31T14:34:35;63325.50;;;-144.63;100.00
6020;BME280;3038;51.122;6.840;2023-08-31T14:37:01;63325.50;;;-144.63;100.00
6020;BME280;3038;51.122;6.840;2023-08-31T14:39:26;63325.50;;;-144.63;100.00
6020;BME280;3038;51.122;6.840;2023-08-31T14:41:56;63325.50;;;-144.63;100.00
6020;BME280;3038;51.122;6.840;2023-08-31T14:44:22;63325.50;;;-144.63;100.00
6020;BME280;3038;51.122;6.840;2023-08-31T14:46:47;63325.50;;;-144.63;100.00
6020;BME280;3038;51.122;6.840;2023-08-31T14:49:13;63325.50;;;21.92;100.00
6020;BME280;3038;51.122;6.840;2023-08-31T14:51:38;63325.50;;;189.61;100.00
6020;BME280;3038;51.122;6.840;2023-08-31T14:54:04;63325.50;;;-144.63;100.00
6020;BME280;3038;51.122;6.840;2023-08-31T14:56:30;63325.50;;;-144.63;100.00
6020;BME280;3038;51.122;6.840;2023-08-31T14:58:55;63325.50;;;-144.63;100.00
6020;BME280;3038;51.122;6.840;2023-08-31T15:01:20;63325.50;;;-144.63;100.00
6020;BME280;3038;51.122;6.840;2023-08-31T15:03:48;63325.50;;;-144.63;100.00
6020;BME280;3038;51.122;6.840;2023-08-31T15:06:13;63325.50;;;-144.63;100.00
6020;BME280;3038;51.122;6.840;2023-08-31T15:08:40;63325.50;;;-144.63;100.00
6020;BME280;3038;51.122;6.840;2023-08-31T15:11:09;63325.50;;;-144.63;100.00
6020;BME280;3038;51.122;6.840;2023-08-31T15:13:34;63325.50;;;-144.63;100.00
6020;BME280;3038;51.122;6.840;2023-08-31T15:16:00;63325.50;;;-144.63;100.00
6020;BME280;3038;51.122;6.840;2023-08-31T15:18:26;63325.50;;;21.45;100.00
6020;BME280;3038;51.122;6.840;2023-08-31T15:20:53;63325.50;;;189.61;100.00
6020;BME280;3038;51.122;6.840;2023-08-31T15:23:18;63325.50;;;-144.63;100.00
6020;BME280;3038;51.122;6.840;2023-08-31T15:25:43;63325.50;;;-144.63;100.00
6020;BME280;3038;51.122;6.840;2023-08-31T15:28:09;63325.50;;;189.61;100.00
6020;BME280;3038;51.122;6.840;2023-08-31T15:30:34;63325.50;;;-144.63;100.00
6020;BME280;3038;51.122;6.840;2023-08-31T15:33:03;63325.50;;;-144.63;100.00
6020;BME280;3038;51.122;6.840;2023-08-31T15:35:29;63325.50;;;-144.63;100.00
6020;BME280;3038;51.122;6.840;2023-08-31T15:37:55;63325.50;;;189.61;100.00
6020;BME280;3038;51.122;6.840;2023-08-31T15:40:20;63325.50;;;-144.63;100.00
6020;BME280;3038;51.122;6.840;2023-08-31T15:42:47;63325.50;;;-144.63;100.00
6020;BME280;3038;51.122;6.840;2023-08-31T15:45:12;63325.50;;;-144.63;100.00
6020;BME280;3038;51.122;6.840;2023-08-31T15:47:38;63325.50;;;189.61;100.00